Time;durP1;ratioP1;P1;durP2;ratioP2;P2;SDS_P1;SDS_P2;PMS_P1;PMS_P2;Temp;Humidity;BMP_temperature;BMP_pressure;BME280_temperature;BME280_humidity;BME280_pressure;Samples;Min_cycle;Max_cycle;Signal;HPM_P1;HPM_P2
2023/08/24 00:01:02;;;;;;;;;;;;;;;31.01;46.30;99973.31;4465700;32;33523;-78
2023/08/24 00:03:29;;;;;;;;;;;;;;;30.62;47.42;99975.56;4469033;32;34278;-78
2023/08/24 00:05:56;;;;;;;;;;;;;;;30.46;47.62;99975.22;4468060;32;34705;-79
2023/08/24 00:08:23;;;;;;;;;;;;;;;30.03;48.81;99976.66;4469177;32;34533;-78
2023/08/24 00:10:52;;;;;;;;;;;;;;;30.45;47.69;99969.00;4468511;32;33257;-79
2023/08/24 00:13:19;;;;;;;;;;;;;;;30.85;46.72;99961.38;4467413;32;34840;-79
2023/08/24 00:15:48;;;;;;;;;;;;;;;31.22;45.96;99960.06;4468842;32;35036;-78
2023/08/24 00:18:18;;;;;;;;;;;;;;;31.44;45.12;99960.97;4468660;32;34979;-78
2023/08/24 00:20:45;;;;;;;;;;;;;;;31.37;45.48;99964.84;4465645;32;33568;-78
2023/08/24 00:23:13;;;;;;;;;;;;;;;30.22;48.26;99972.44;4465967;32;33903;-79
2023/08/24 00:25:43;;;;;;;;;;;;;;;29.80;49.51;99967.56;4467307;32;33735;-78
2023/08/24 00:28:10;;;;;;;;;;;;;;;29.74;49.77;99970.44;4459804;32;34928;-78
2023/08/24 00:30:37;;;;;;;;;;;;;;;30.46;48.02;99961.88;4468091;32;33346;-79
2023/08/24 00:33:05;;;;;;;;;;;;;;;30.38;48.02;99962.13;4468499;32;34307;-79
2023/08/24 00:35:32;;;;;;;;;;;;;;;30.12;48.75;99968.34;4466519;32;34190;-78
2023/08/24 00:37:59;;;;;;;;;;;;;;;30.41;48.12;99971.88;4463146;32;34434;-78
2023/08/24 00:40:27;;;;;;;;;;;;;;;29.72;49.72;99966.91;4474249;32;33590;-79
2023/08/24 00:42:54;;;;;;;;;;;;;;;29.38;50.84;99962.59;4460483;32;32162;-78
2023/08/24 00:45:22;;;;;;;;;;;;;;;28.98;51.83;99969.09;4464039;32;34571;-78
2023/08/24 00:47:49;;;;;;;;;;;;;;;29.36;51.07;99969.78;4465648;32;34429;-78
2023/08/24 00:50:17;;;;;;;;;;;;;;;29.21;51.39;99972.00;4468158;32;34175;-78
2023/08/24 00:52:45;;;;;;;;;;;;;;;28.73;52.52;99980.41;4458275;32;34676;-79
2023/08/24 00:55:12;;;;;;;;;;;;;;;28.87;52.41;99976.50;4460086;32;34760;-78
2023/08/24 00:57:39;;;;;;;;;;;;;;;29.21;51.58;99981.78;4460338;32;34125;-78
2023/08/24 01:00:10;;;;;;;;;;;;;;;29.64;50.51;99980.50;4466856;32;33350;-79
2023/08/24 01:02:38;;;;;;;;;;;;;;;29.29;51.51;99986.91;4467927;32;34399;-78
2023/08/24 01:05:06;;;;;;;;;;;;;;;29.24;51.79;99986.16;4467989;32;33887;-78
2023/08/24 01:07:34;;;;;;;;;;;;;;;29.10;52.24;99995.41;4468034;32;34260;-78
2023/08/24 01:10:03;;;;;;;;;;;;;;;29.12;52.09;99996.25;4455075;32;33685;-78
2023/08/24 01:12:49;;;;;;;;;;;;;;;28.86;52.81;99985.41;4468000;32;34717;-78
2023/08/24 01:15:35;;;;;;;;;;;;;;;29.52;51.01;99983.56;4463331;32;33936;-78
2023/08/24 01:18:04;;;;;;;;;;;;;;;29.70;50.48;99976.75;4467429;32;34451;-78
2023/08/24 01:20:33;;;;;;;;;;;;;;;28.98;52.31;99974.41;4462851;32;34003;-79
2023/08/24 01:23:18;;;;;;;;;;;;;;;29.10;52.21;99973.19;4467601;32;34817;-78
2023/08/24 01:25:52;;;;;;;;;;;;;;;29.20;51.87;99975.56;4458641;32;34186;-78
2023/08/24 01:28:21;;;;;;;;;;;;;;;29.34;51.36;99976.97;4467678;32;34266;-78
2023/08/24 01:30:48;;;;;;;;;;;;;;;28.74;53.23;99971.53;4467559;32;33467;-78
2023/08/24 01:33:16;;;;;;;;;;;;;;;29.03;52.31;99977.81;4459531;32;34457;-78
2023/08/24 01:35:43;;;;;;;;;;;;;;;29.20;52.01;99978.22;4467668;32;34268;-79
2023/08/24 01:38:13;;;;;;;;;;;;;;;29.39;51.13;99975.03;4448721;32;34512;-78
2023/08/24 01:40:46;;;;;;;;;;;;;;;30.13;49.12;99973.62;4467640;32;33487;-78
2023/08/24 01:43:14;;;;;;;;;;;;;;;30.29;48.46;99968.66;4467231;32;33704;-78
2023/08/24 01:45:51;;;;;;;;;;;;;;;29.76;49.54;99966.78;4464530;32;34030;-78
2023/08/24 01:48:19;;;;;;;;;;;;;;;29.18;51.56;99965.88;4457114;32;34154;-78
2023/08/24 01:50:46;;;;;;;;;;;;;;;29.30;51.40;99969.97;4465468;32;32835;-78
2023/08/24 01:53:13;;;;;;;;;;;;;;;29.43;50.61;99976.69;4464223;32;34879;-79
2023/08/24 01:55:41;;;;;;;;;;;;;;;28.93;52.00;99971.88;4467223;32;34033;-79
2023/08/24 01:58:08;;;;;;;;;;;;;;;29.13;51.66;99963.34;4467349;32;35025;-78
2023/08/24 02:00:36;;;;;;;;;;;;;;;29.38;51.10;99971.50;4467897;32;33691;-78
2023/08/24 02:03:03;;;;;;;;;;;;;;;28.80;52.68;99971.34;4465564;32;34633;-79
2023/08/24 02:05:31;;;;;;;;;;;;;;;29.11;52.00;99973.16;4466696;32;35052;-79
2023/08/24 02:07:59;;;;;;;;;;;;;;;28.85;52.70;99973.00;4464016;32;34249;-78
2023/08/24 02:10:27;;;;;;;;;;;;;;;28.72;53.21;99977.78;4460121;32;33297;-78
2023/08/24 02:12:54;;;;;;;;;;;;;;;29.06;52.10;99966.19;4468340;32;33754;-78
2023/08/24 02:15:22;;;;;;;;;;;;;;;29.53;50.78;99967.47;4462678;32;33616;-78
2023/08/24 02:17:50;;;;;;;;;;;;;;;29.14;51.78;99964.22;4469720;32;34919;-79
2023/08/24 02:20:18;;;;;;;;;;;;;;;28.80;52.85;99971.34;4462378;32;34139;-79
2023/08/24 02:22:45;;;;;;;;;;;;;;;28.73;53.18;99969.75;4469693;32;33969;-78
2023/08/24 02:25:13;;;;;;;;;;;;;;;29.16;51.88;99967.72;4466041;32;34230;-79
2023/08/24 02:27:40;;;;;;;;;;;;;;;29.13;52.01;99960.69;4465865;32;34246;-79
2023/08/24 02:30:07;;;;;;;;;;;;;;;29.34;51.08;99963.63;4467946;32;32762;-78
2023/08/24 02:32:35;;;;;;;;;;;;;;;29.41;50.96;99965.19;4469810;32;35065;-79
2023/08/24 02:35:02;;;;;;;;;;;;;;;29.29;51.48;99960.22;4466545;32;33601;-78
2023/08/24 02:37:30;;;;;;;;;;;;;;;29.57;50.48;99958.47;4463918;32;34959;-79
2023/08/24 02:39:57;;;;;;;;;;;;;;;29.29;51.25;99958.44;4467694;32;33552;-78
2023/08/24 02:42:25;;;;;;;;;;;;;;;29.45;50.86;99956.16;4464488;32;34693;-78
2023/08/24 02:44:54;;;;;;;;;;;;;;;29.05;51.94;99967.09;4464472;32;34719;-78
2023/08/24 02:47:21;;;;;;;;;;;;;;;29.45;50.73;99964.16;4469211;32;32913;-78
2023/08/24 02:49:48;;;;;;;;;;;;;;;28.87;52.39;99965.84;4465640;32;33424;-78
2023/08/24 02:52:16;;;;;;;;;;;;;;;29.38;51.06;99967.94;4471278;32;33973;-78
2023/08/24 02:54:43;;;;;;;;;;;;;;;29.57;50.51;99968.25;4469322;32;34998;-78
2023/08/24 02:57:10;;;;;;;;;;;;;;;29.55;50.36;99971.00;4471007;32;34442;-79
2023/08/24 02:59:38;;;;;;;;;;;;;;;29.36;50.95;99969.78;4468315;32;31744;-79
2023/08/24 03:02:07;;;;;;;;;;;;;;;29.77;49.89;99965.00;4469287;32;34269;-78
2023/08/24 03:04:34;;;;;;;;;;;;;;;29.21;51.51;99960.47;4469469;32;33615;-78
2023/08/24 03:07:01;;;;;;;;;;;;;;;29.57;50.53;99963.81;4469410;32;33712;-78
2023/08/24 03:09:29;;;;;;;;;;;;;;;29.48;51.02;99963.22;4469394;32;34006;-78
2023/08/24 03:11:57;;;;;;;;;;;;;;;29.41;50.76;99965.19;4468744;32;34178;-79
2023/08/24 03:14:24;;;;;;;;;;;;;;;29.42;50.82;99956.28;4469361;32;34126;-79
2023/08/24 03:16:51;;;;;;;;;;;;;;;29.87;49.57;99955.78;4469311;32;33806;-78
2023/08/24 03:19:20;;;;;;;;;;;;;;;29.79;49.75;99957.81;4465716;32;33739;-78
2023/08/24 03:21:47;;;;;;;;;;;;;;;29.35;50.83;99965.38;4466649;32;33261;-79
2023/08/24 03:24:15;;;;;;;;;;;;;;;29.19;51.58;99963.16;4468471;32;34042;-79
2023/08/24 03:26:42;;;;;;;;;;;;;;;29.65;50.32;99968.00;4464596;32;34734;-78
2023/08/24 03:29:09;;;;;;;;;;;;;;;29.38;51.02;99959.94;4463015;32;33303;-79
2023/08/24 03:31:37;;;;;;;;;;;;;;;29.36;51.12;99967.09;4467654;32;34074;-78
2023/08/24 03:34:05;;;;;;;;;;;;;;;29.35;51.08;99963.56;4468908;32;34224;-78
2023/08/24 03:36:32;;;;;;;;;;;;;;;28.94;52.02;99967.44;4468390;32;34788;-78
2023/08/24 03:39:00;;;;;;;;;;;;;;;28.88;52.19;99967.56;4468882;32;33691;-79
2023/08/24 03:41:29;;;;;;;;;;;;;;;30.17;48.59;99969.03;4468725;32;34298;-78
2023/08/24 03:43:57;;;;;;;;;;;;;;;29.53;50.53;99972.81;4469168;32;33993;-78
2023/08/24 03:46:25;;;;;;;;;;;;;;;29.62;49.99;99966.31;4468917;32;34433;-79
2023/08/24 03:48:53;;;;;;;;;;;;;;;28.92;52.01;99974.59;4469618;32;33601;-79
2023/08/24 03:51:20;;;;;;;;;;;;;;;29.44;50.56;99975.78;4463299;32;34200;-78
2023/08/24 03:53:47;;;;;;;;;;;;;;;29.53;50.52;99971.94;4464262;32;33951;-79
2023/08/24 03:56:15;;;;;;;;;;;;;;;29.33;50.96;99975.22;4459244;32;35026;-78
2023/08/24 03:58:43;;;;;;;;;;;;;;;29.73;50.01;99968.72;4468578;32;34169;-78
2023/08/24 04:01:11;;;;;;;;;;;;;;;29.87;49.52;99971.78;4466688;32;33674;-79
2023/08/24 04:03:38;;;;;;;;;;;;;;;29.35;50.88;99978.72;4462656;32;34122;-79
2023/08/24 04:06:05;;;;;;;;;;;;;;;28.74;52.52;99971.53;4468220;32;34285;-78
2023/08/24 04:08:33;;;;;;;;;;;;;;;29.02;52.04;99976.06;4469157;32;33670;-78
2023/08/24 04:11:01;;;;;;;;;;;;;;;29.17;51.56;99974.81;4474952;32;34155;-78
2023/08/24 04:13:28;;;;;;;;;;;;;;;29.17;51.39;99965.00;4468535;32;34048;-78
2023/08/24 04:15:56;;;;;;;;;;;;;;;29.22;51.34;99972.84;4468747;32;34495;-78
2023/08/24 04:18:23;;;;;;;;;;;;;;;28.99;52.09;99976.16;4469135;32;34222;-78
2023/08/24 04:20:51;;;;;;;;;;;;;;;29.14;51.61;99967.75;4468572;32;33959;-78
2023/08/24 04:23:23;;;;;;;;;;;;;;;28.59;53.38;99978.13;4474096;32;34041;-79
2023/08/24 04:25:50;;;;;;;;;;;;;;;29.14;51.83;99974.88;4468203;32;34402;-78
2023/08/24 04:28:17;;;;;;;;;;;;;;;29.01;52.14;99977.87;4456853;32;33571;-79
2023/08/24 04:30:51;;;;;;;;;;;;;;;28.79;52.53;99980.25;4466408;32;34841;-79
2023/08/24 04:33:19;;;;;;;;;;;;;;;29.17;51.70;99974.81;4468282;32;34043;-79
2023/08/24 04:35:47;;;;;;;;;;;;;;;28.89;52.49;99980.00;4468394;32;34370;-78
2023/08/24 04:38:14;;;;;;;;;;;;;;;29.28;51.44;99977.13;4468866;32;33789;-78
2023/08/24 04:40:45;;;;;;;;;;;;;;;28.82;52.60;99980.19;4467117;32;34363;-78
2023/08/24 04:43:12;;;;;;;;;;;;;;;28.86;52.53;99980.06;4469069;32;34090;-78
2023/08/24 04:45:39;;;;;;;;;;;;;;;29.20;51.50;99975.56;4468174;32;35215;-78
2023/08/24 04:48:07;;;;;;;;;;;;;;;29.43;51.10;99984.69;4469150;32;34445;-79
2023/08/24 04:50:34;;;;;;;;;;;;;;;29.21;51.36;99982.66;4468439;32;33772;-78
2023/08/24 04:53:02;;;;;;;;;;;;;;;28.97;52.10;99988.66;4468495;32;34377;-79
2023/08/24 04:55:29;;;;;;;;;;;;;;;29.33;51.27;99988.56;4468377;32;35005;-78
2023/08/24 04:57:57;;;;;;;;;;;;;;;29.92;49.52;99990.34;4469907;32;33485;-79
2023/08/24 05:00:24;;;;;;;;;;;;;;;29.86;49.53;99995.88;4467489;32;34167;-79
2023/08/24 05:02:52;;;;;;;;;;;;;;;29.71;49.86;99994.50;4468171;32;34542;-78
2023/08/24 05:05:20;;;;;;;;;;;;;;;29.85;49.40;100000.34;4468107;32;34012;-78
2023/08/24 05:07:47;;;;;;;;;;;;;;;30.32;48.36;100002.44;4465252;32;33483;-81
2023/08/24 05:10:15;;;;;;;;;;;;;;;29.53;50.23;99994.16;4459096;32;34240;-78
2023/08/24 05:12:42;;;;;;;;;;;;;;;29.93;49.32;100000.97;4466774;32;33943;-78
2023/08/24 05:15:09;;;;;;;;;;;;;;;29.85;49.22;100004.81;4465349;32;34197;-79
2023/08/24 05:17:37;;;;;;;;;;;;;;;29.38;50.58;100008.84;4468622;32;33520;-79
2023/08/24 05:20:05;;;;;;;;;;;;;;;29.90;49.42;100014.44;4468299;32;34253;-78
2023/08/24 05:22:32;;;;;;;;;;;;;;;29.91;49.18;100010.84;4468477;32;34184;-78
2023/08/24 05:24:59;;;;;;;;;;;;;;;30.39;48.05;100009.31;4467677;32;33846;-78
2023/08/24 05:27:26;;;;;;;;;;;;;;;30.11;48.81;100003.97;4467609;32;33084;-78
2023/08/24 05:29:54;;;;;;;;;;;;;;;30.12;48.65;100008.41;4467852;32;33945;-78
2023/08/24 05:32:21;;;;;;;;;;;;;;;30.32;48.26;100016.66;4466343;32;32376;-78
2023/08/24 05:34:49;;;;;;;;;;;;;;;29.94;49.16;100018.75;4466545;32;32723;-78
2023/08/24 05:37:16;;;;;;;;;;;;;;;30.57;47.73;100015.84;4468049;32;34810;-78
2023/08/24 05:39:43;;;;;;;;;;;;;;;30.54;47.76;100018.62;4467725;32;35086;-78
2023/08/24 05:42:11;;;;;;;;;;;;;;;30.23;48.55;100016.06;4460792;32;34181;-78
2023/08/24 05:44:39;;;;;;;;;;;;;;;30.76;47.27;100011.59;4467896;32;35244;-78
2023/08/24 05:47:06;;;;;;;;;;;;;;;31.02;46.66;100017.84;4463855;32;32871;-78
2023/08/24 05:49:34;;;;;;;;;;;;;;;30.56;47.76;100019.44;4470132;32;34177;-79
2023/08/24 05:52:01;;;;;;;;;;;;;;;30.73;47.50;100019.75;4470000;32;34055;-79
2023/08/24 05:54:28;;;;;;;;;;;;;;;30.73;47.67;100019.75;4466212;32;35185;-78
2023/08/24 05:57:00;;;;;;;;;;;;;;;31.01;47.12;100020.59;4468990;32;33831;-78
2023/08/24 05:59:27;;;;;;;;;;;;;;;31.05;47.06;100028.44;4469738;32;34135;-78
2023/08/24 06:01:55;;;;;;;;;;;;;;;31.03;47.14;100027.63;4469829;32;35132;-79
2023/08/24 06:04:22;;;;;;;;;;;;;;;30.99;47.24;100023.31;4469789;32;35099;-78
2023/08/24 06:06:50;;;;;;;;;;;;;;;30.87;47.55;100029.06;4469471;32;34323;-80
2023/08/24 06:09:17;;;;;;;;;;;;;;;31.09;47.11;100030.06;4469576;32;34116;-78
2023/08/24 06:11:46;;;;;;;;;;;;;;;31.08;47.15;100023.00;4467471;32;34206;-79
2023/08/24 06:14:13;;;;;;;;;;;;;;;31.36;46.73;100033.53;4469917;32;34492;-79
2023/08/24 06:16:40;;;;;;;;;;;;;;;31.55;46.38;100023.03;4469585;32;32865;-80
2023/08/24 06:19:08;;;;;;;;;;;;;;;31.69;46.06;100024.31;4467027;32;34343;-79
2023/08/24 06:21:35;;;;;;;;;;;;;;;32.01;45.26;100022.12;4472258;32;34905;-79
2023/08/24 06:24:03;;;;;;;;;;;;;;;31.96;45.15;100029.50;4470018;32;34324;-80
2023/08/24 06:26:31;;;;;;;;;;;;;;;31.76;45.59;100025.81;4466974;32;33548;-79
2023/08/24 06:28:58;;;;;;;;;;;;;;;32.02;45.13;100032.84;4469511;32;33794;-78
2023/08/24 06:31:25;;;;;;;;;;;;;;;32.38;44.45;100031.41;4465081;32;34136;-79
2023/08/24 06:33:53;;;;;;;;;;;;;;;32.21;44.87;100027.59;4469819;32;34246;-79
2023/08/24 06:36:20;;;;;;;;;;;;;;;32.73;43.59;100037.97;4469318;32;34310;-79
2023/08/24 06:38:48;;;;;;;;;;;;;;;32.76;43.49;100034.28;4468640;32;33980;-78
2023/08/24 06:41:16;;;;;;;;;;;;;;;32.70;43.75;100036.31;4469325;32;35013;-78
2023/08/24 06:43:45;;;;;;;;;;;;;;;32.62;44.20;100033.06;4468521;32;34508;-77
2023/08/24 06:46:13;;;;;;;;;;;;;;;32.69;44.20;100034.56;4467751;32;33510;-77
2023/08/24 06:48:45;;;;;;;;;;;;;;;33.16;42.98;100027.19;4467817;32;33709;-78
2023/08/24 06:51:12;;;;;;;;;;;;;;;32.91;43.33;100028.25;4467242;32;33842;-78
2023/08/24 06:53:39;;;;;;;;;;;;;;;33.07;43.09;100021.28;4468678;32;35082;-78
2023/08/24 06:56:07;;;;;;;9.43;6.12;;;;;;;33.23;42.56;100021.47;4468031;32;33392;-78
2023/08/24 06:58:35;;;;;;;8.35;7.00;;;;;;;33.33;41.99;100013.00;4464676;32;34444;-78
2023/08/24 07:01:06;;;;;;;8.45;6.90;;;;;;;32.28;44.07;100023.75;4464543;32;33711;-78
2023/08/24 07:03:34;;;;;;;9.13;6.55;;;;;;;31.78;45.00;100023.94;4463841;32;33747;-78
2023/08/24 07:06:02;;;;;;;9.30;6.93;;;;;;;32.50;43.71;100028.19;4466653;32;33635;-77
2023/08/24 07:08:29;;;;;;;10.03;6.87;;;;;;;32.10;44.52;100028.06;4467479;32;32321;-76
2023/08/24 07:10:57;;;;;;;8.48;6.25;;;;;;;32.17;44.58;100015.28;4465833;32;33610;-76
2023/08/24 07:13:26;;;;;;;10.57;5.90;;;;;;;32.93;43.15;100026.38;4463988;32;34854;-77
2023/08/24 07:15:55;;;;;;;8.13;6.00;;;;;;;33.10;42.88;100023.84;4468211;32;34297;-78
2023/08/24 07:18:23;;;;;;;9.18;6.10;;;;;;;33.53;41.86;100020.13;4465905;32;34551;-79
2023/08/24 07:20:50;;;;;;;9.23;6.82;;;;;;;33.08;41.69;100023.00;4465051;32;34043;-76
2023/08/24 07:23:18;;;;;;;8.95;6.35;;;;;;;33.04;41.70;100025.91;4463345;32;33298;-76
2023/08/24 07:25:45;;;;;;;9.32;5.85;;;;;;;32.96;42.49;100031.59;4468281;32;33599;-74
2023/08/24 07:28:13;;;;;;;8.65;5.47;;;;;;;33.46;41.69;100020.41;4466551;32;33997;-75
2023/08/24 07:30:40;;;;;;;6.90;4.95;;;;;;;33.97;40.47;100023.41;4469219;32;34790;-76
2023/08/24 07:33:08;;;;;;;9.30;6.05;;;;;;;33.80;40.49;100018.84;4467876;32;33783;-76
2023/08/24 07:35:36;;;;;;;8.13;5.68;;;;;;;33.54;40.16;100021.88;4467532;32;33539;-76
2023/08/24 07:38:04;;;;;;;;;;;;;;;33.69;40.51;100023.87;4468092;32;34563;-75
2023/08/24 07:40:32;;;;;;;;;;;;;;;34.23;39.14;100032.91;4468784;32;34733;-77
2023/08/24 07:43:00;;;;;;;8.60;5.72;;;;;;;34.27;38.57;100025.56;4460937;32;34593;-76
2023/08/24 07:45:28;;;;;;;;;;;;;;;34.53;38.86;100024.25;4464598;32;33263;-76
2023/08/24 07:47:56;;;;;;;8.25;5.90;;;;;;;34.73;38.70;100025.06;4468092;32;34228;-76
2023/08/24 07:50:24;;;;;;;7.05;5.25;;;;;;;35.02;38.34;100023.53;4464197;32;35133;-77
2023/08/24 07:52:51;;;;;;;7.65;5.50;;;;;;;34.93;38.05;100024.91;4462184;32;34236;-75
2023/08/24 07:55:24;;;;;;;9.02;5.60;;;;;;;35.26;37.15;100024.06;4468779;32;32750;-74
2023/08/24 07:57:51;;;;;;;7.60;5.03;;;;;;;36.05;35.90;100023.31;4468415;32;33722;-76
2023/08/24 08:00:19;;;;;;;8.05;6.00;;;;;;;36.14;35.38;100030.87;4465123;32;33850;-76
2023/08/24 08:02:51;;;;;;;8.90;5.65;;;;;;;35.73;35.78;100023.28;4464868;32;34237;-76
2023/08/24 08:05:19;;;;;;;8.45;5.75;;;;;;;36.21;35.37;100024.16;4466836;32;33754;-78
2023/08/24 08:07:46;;;;;;;;;;;;;;;36.29;35.30;100036.34;4465798;32;33869;-75
2023/08/24 08:10:17;;;;;;;8.00;6.07;;;;;;;36.57;34.69;100024.78;4464647;32;33995;-74
2023/08/24 08:12:45;;;;;;;7.22;5.50;;;;;;;36.77;33.96;100031.72;4468777;32;34092;-75
2023/08/24 08:15:12;;;;;;;7.97;5.22;;;;;;;36.28;35.25;100031.88;4468658;32;33672;-76
2023/08/24 08:17:42;;;;;;;7.40;5.45;;;;;;;36.74;34.34;100031.88;4468020;32;34790;-75
2023/08/24 08:20:11;;;;;;;7.30;5.60;;;;;;;36.63;34.90;100029.81;4465887;32;33678;-76
2023/08/24 08:22:39;;;;;;;8.85;5.62;;;;;;;36.65;34.46;100032.47;4468801;32;34211;-75
2023/08/24 08:25:07;;;;;;;7.25;4.80;;;;;;;36.80;33.95;100031.53;4461827;32;34007;-75
2023/08/24 08:27:34;;;;;;;8.73;5.37;;;;;;;36.56;34.25;100039.22;4465249;32;33557;-75
2023/08/24 08:30:04;;;;;;;;;;;;;;;37.30;32.94;100035.69;4464342;32;34592;-74
2023/08/24 08:32:32;;;;;;;8.65;5.12;;;;;;;37.77;31.57;100029.06;4465577;32;33314;-75
2023/08/24 08:35:01;;;;;;;7.75;4.50;;;;;;;37.19;31.79;100030.06;4464329;32;33323;-75
2023/08/24 08:37:30;;;;;;;;;;;;;;;37.60;31.25;100026.59;4468004;32;33972;-76
2023/08/24 08:39:57;;;;;;;;;;;;;;;37.65;31.09;100029.88;4467445;32;33897;-75
2023/08/24 08:42:25;;;;;;;;;;;;;;;38.22;30.79;100028.00;4467639;32;34243;-75
2023/08/24 08:44:54;;;;;;;7.03;4.78;;;;;;;38.23;30.05;100027.91;4468130;32;33454;-75
2023/08/24 08:47:24;;;;;;;8.82;4.43;;;;;;;38.01;30.72;100020.31;4467361;32;33598;-77
2023/08/24 08:49:55;;;;;;;7.82;4.60;;;;;;;38.42;29.63;100018.53;4462822;32;33989;-76
2023/08/24 08:52:25;;;;;;;7.10;4.75;;;;;;;38.20;29.70;100024.53;4468066;32;33390;-74
2023/08/24 08:54:52;;;;;;;7.97;4.55;;;;;;;38.31;29.46;100017.44;4462722;32;33637;-78
2023/08/24 08:57:23;;;;;;;7.93;4.32;;;;;;;38.36;29.57;100025.22;4462981;32;34839;-76
2023/08/24 08:59:52;;;;;;;10.55;4.60;;;;;;;38.41;29.17;100011.41;4462617;32;32489;-77
2023/08/24 09:02:20;;;;;;;8.18;5.07;;;;;;;38.80;28.56;100013.22;4463644;32;33605;-77
2023/08/24 09:04:50;;;;;;;10.15;4.95;;;;;;;38.60;28.87;100014.63;4465348;32;33591;-77
2023/08/24 09:07:18;;;;;;;6.40;4.60;;;;;;;38.55;29.19;100014.06;4466618;32;33127;-76
2023/08/24 09:09:45;;;;;;;;;;;;;;;38.54;28.71;100007.78;4467367;32;33920;-78
2023/08/24 09:12:13;;;;;;;;;;;;;;;38.75;28.33;100012.69;4467379;32;34581;-76
2023/08/24 09:14:41;;;;;;;;;;;;;;;39.32;27.72;100003.28;4466400;32;34378;-76
2023/08/24 09:17:09;;;;;;;9.25;4.25;;;;;;;39.47;26.56;100006.75;4467451;32;34386;-78
2023/08/24 09:19:38;;;;;;;;;;;;;;;39.23;27.33;100004.78;4468397;32;33570;-76
2023/08/24 09:22:06;;;;;;;;;;;;;;;39.48;27.04;100003.06;4472814;32;33939;-76
2023/08/24 09:24:35;;;;;;;;;;;;;;;39.56;26.89;100003.34;4471425;32;33460;-76
2023/08/24 09:27:17;;;;;;;6.95;3.95;;;;;;;39.62;26.17;100008.34;4473477;32;34110;-77
2023/08/24 09:29:52;;;;;;;6.57;4.35;;;;;;;39.18;26.43;99998.00;4470586;32;33960;-75
2023/08/24 09:32:24;;;;;;;6.22;3.78;;;;;;;39.36;25.63;99993.09;4469237;32;34279;-76
2023/08/24 09:34:52;;;;;;;6.10;3.65;;;;;;;39.29;26.40;99995.34;4470434;32;33105;-77
2023/08/24 09:37:19;;;;;;;5.85;3.58;;;;;;;39.65;25.27;99994.56;4472845;32;34027;-76
2023/08/24 09:39:48;;;;;;;5.80;3.87;;;;;;;39.37;25.66;99992.97;4467817;32;34665;-74
2023/08/24 09:42:25;;;;;;;5.90;4.00;;;;;;;39.37;26.02;99984.84;4471341;32;34031;-77
2023/08/24 09:45:04;;;;;;;5.65;3.85;;;;;;;40.08;25.38;99985.09;4469988;32;33597;-76
2023/08/24 09:47:32;;;;;;;7.82;3.75;;;;;;;39.61;25.97;99984.06;4470460;32;34199;-76
2023/08/24 09:50:00;;;;;;;6.37;3.72;;;;;;;39.77;25.17;99986.50;4470862;32;33432;-76
2023/08/24 09:52:31;;;;;;;5.15;3.75;;;;;;;39.88;25.35;99986.59;4471935;32;36260;-76
2023/08/24 09:55:05;;;;;;;5.68;3.50;;;;;;;40.16;23.96;99992.63;4471874;32;33483;-75
2023/08/24 09:57:37;;;;;;;5.30;3.45;;;;;;;39.84;24.23;99987.78;4470217;32;83983;-77
2023/08/24 10:00:15;;;;;;;5.18;3.25;;;;;;;39.71;24.41;99983.25;4471684;32;33999;-75
2023/08/24 10:02:50;;;;;;;5.53;3.70;;;;;;;39.67;24.96;99987.16;4461653;32;34164;-76
2023/08/24 10:05:29;;;;;;;6.95;3.35;;;;;;;40.14;24.48;99983.75;4471572;32;34276;-76
2023/08/24 10:08:12;;;;;;;8.23;3.60;;;;;;;40.39;23.56;99990.91;4468254;32;34644;-75
2023/08/24 10:10:41;;;;;;;6.95;3.40;;;;;;;40.44;22.85;99989.56;4460979;32;33895;-77
2023/08/24 10:13:16;;;;;;;6.10;3.40;;;;;;;40.36;21.90;99993.87;4464392;32;34214;-75
2023/08/24 10:15:46;;;;;;;5.18;2.83;;;;;;;40.38;22.96;99981.06;4469577;32;34090;-77
2023/08/24 10:18:15;;;;;;;7.90;3.50;;;;;;;40.10;23.45;99984.00;4458308;32;33400;-76
2023/08/24 10:20:43;;;;;;;5.97;3.53;;;;;;;39.99;22.98;99993.94;4472553;32;33859;-76
2023/08/24 10:23:12;;;;;;;5.68;2.90;;;;;;;40.32;23.07;99976.97;4471467;32;34195;-76
2023/08/24 10:25:42;;;;;;;6.45;3.50;;;;;;;40.77;22.67;99971.66;4460334;32;33425;-75
2023/08/24 10:28:10;;;;;;;8.43;3.80;;;;;;;40.39;22.94;99978.22;4471847;32;32820;-75
2023/08/24 10:30:40;;;;;;;5.87;3.30;;;;;;;40.38;23.65;99971.06;4442319;32;32976;-77
2023/08/24 10:33:08;;;;;;;7.85;3.53;;;;;;;40.68;22.92;99977.78;4460602;32;33941;-76
2023/08/24 10:35:36;;;;;;;8.30;4.00;;;;;;;40.68;22.16;99961.50;4469351;32;34062;-77
2023/08/24 10:38:05;;;;;;;5.05;3.30;;;;;;;40.93;21.84;99965.03;4469483;32;34532;-76
2023/08/24 10:40:33;;;;;;;6.10;3.15;;;;;;;40.90;22.17;99949.84;4469513;32;34814;-75
2023/08/24 10:43:07;;;;;;;6.87;3.62;;;;;;;40.43;22.46;99963.44;4469359;32;34218;-77
2023/08/24 10:45:57;;;;;;;5.10;3.08;;;;;;;40.77;21.97;99947.22;4469371;32;33211;-75
2023/08/24 10:48:27;;;;;;;4.30;3.00;;;;;;;40.47;22.52;99953.19;4458351;32;34421;-76
2023/08/24 10:51:13;;;;;;;7.22;3.47;;;;;;;40.40;22.33;99952.81;4469353;32;34474;-75
2023/08/24 10:53:42;;;;;;;6.80;3.42;;;;;;;40.99;21.42;99948.22;4469324;32;34065;-75
2023/08/24 10:56:13;;;;;;;5.15;3.75;;;;;;;40.71;22.20;99938.69;4455574;32;33389;-77
2023/08/24 10:58:42;;;;;;;6.07;3.20;;;;;;;40.69;22.01;99941.50;4468456;32;33596;-76
2023/08/24 11:01:19;;;;;;;5.78;3.75;;;;;;;40.56;22.63;99948.88;4468490;32;33778;-77
2023/08/24 11:03:56;;;;;;;9.00;3.92;;;;;;;40.45;22.70;99945.19;4469238;32;33558;-77
2023/08/24 11:06:25;;;;;;;6.43;3.62;;;;;;;40.61;22.48;99944.84;4469370;32;34286;-74
2023/08/24 11:09:13;;;;;;;7.32;4.03;;;;;;;40.64;22.30;99944.59;4467903;32;33769;-76
2023/08/24 11:11:41;;;;;;;6.03;3.97;;;;;;;40.84;22.33;99945.75;4469596;32;34463;-75
2023/08/24 11:14:21;;;;;;;6.18;3.53;;;;;;;40.18;22.85;99948.16;4469018;32;34114;-76
2023/08/24 11:16:49;;;;;;;7.20;3.90;;;;;;;40.43;22.39;99944.44;4469294;32;34242;-75
2023/08/24 11:19:17;;;;;;;7.35;3.92;;;;;;;40.32;23.06;99944.41;4466779;32;33585;-76
2023/08/24 11:21:45;;;;;;;145.68;98.82;;;;;;;40.33;22.86;99940.69;4469200;32;34723;-74
2023/08/24 11:24:13;;;;;;;23.08;18.33;;;;;;;40.65;22.31;99940.87;4468487;32;34764;-77
2023/08/24 11:26:47;;;;;;;11.15;9.00;;;;;;;40.74;21.73;99933.88;4467578;32;34680;-77
2023/08/24 11:29:18;;;;;;;;;;;;;;;40.61;22.85;99946.69;4462019;32;33838;-75
2023/08/24 11:31:47;;;;;;;8.98;5.60;;;;;;;40.96;22.45;99933.03;4467728;32;34080;-76
2023/08/24 11:34:15;;;;;;;15.60;13.65;;;;;;;40.83;23.06;99933.16;4468251;32;34683;-78
2023/08/24 11:36:46;;;;;;;6.07;4.40;;;;;;;41.15;22.66;99934.28;4466644;32;33576;-77
2023/08/24 11:39:16;;;;;;;8.27;6.03;;;;;;;40.90;22.46;99943.56;4468111;32;33667;-76
2023/08/24 11:41:44;;;;;;;9.60;8.70;;;;;;;40.99;23.05;99926.50;4468681;32;34677;-77
2023/08/24 11:44:12;;;;;;;6.70;5.95;;;;;;;41.28;22.90;99926.00;4453390;32;34191;-77
2023/08/24 11:46:58;;;;;;;6.97;4.47;;;;;;;41.51;22.83;99922.25;4465627;32;33590;-79
2023/08/24 11:49:27;;;;;;;8.15;4.43;;;;;;;41.73;22.18;99915.06;4464701;32;33295;-77
2023/08/24 11:51:54;;;;;;;7.28;4.47;;;;;;;41.55;22.43;99918.31;4464327;32;33579;-77
2023/08/24 11:54:22;;;;;;;6.47;4.62;;;;;;;41.16;23.26;99912.41;4461675;32;34179;-76
2023/08/24 11:56:50;;;;;;;7.68;4.62;;;;;;;41.53;22.49;99919.41;4460054;32;34611;-78
2023/08/24 11:59:19;;;;;;;30.33;27.73;;;;;;;40.62;23.52;99915.81;4463178;32;33851;-76
2023/08/24 12:01:47;;;;;;;35.50;32.58;;;;;;;40.74;23.18;99917.59;4465502;32;33556;-76
2023/08/24 12:04:15;;;;;;;6.40;5.12;;;;;;;41.76;21.83;99914.81;4465836;32;33942;-78
2023/08/24 12:06:42;;;;;;;8.18;4.70;;;;;;;41.54;22.28;99908.41;4467501;32;33450;-78
2023/08/24 12:09:10;;;;;;;13.48;11.23;;;;;;;41.76;21.88;99909.34;4469049;32;33699;-76
2023/08/24 12:11:38;;;;;;;7.80;4.32;;;;;;;41.77;22.04;99905.66;4464661;32;33913;-76
2023/08/24 12:14:09;;;;;;;9.60;5.37;;;;;;;41.70;21.94;99901.72;4466429;32;34324;-79
2023/08/24 12:16:38;;;;;;;6.05;4.47;;;;;;;41.24;22.33;99899.09;4466458;32;33583;-77
2023/08/24 12:19:07;;;;;;;8.77;3.85;;;;;;;41.34;22.31;99898.31;4463766;32;33599;-76
2023/08/24 12:21:35;;;;;;;8.48;6.60;;;;;;;41.70;21.17;99885.41;4465226;32;32197;-76